sim
Sign-in with your pilot id or email,
or register
Callsign
Passwort

Schedule Details

Flight Number: DLH100
Departure: Frankfurt Airport (EDDF) at 09:15
Arrival: Munich Airport (EDDM) at 10:10
Route: Lufthansa Passenger Schedule. Enter filed route here before submitting Pirep.

Weather Information
Getting current METAR information for EDDF 221620Z 15004KT 080V180 9999 FEW060TCU 26/09 Q1007 NOSIG
Getting current METAR information for EDDM 221620Z VRB02KT 9999 FEW040CB 22/14 Q1010 NOSIG

Schedule Frequency

Route Map